Погода Хотемляна 2 недели

Витебская область, Белоруссия

24 мая-06 июня
  • 24мая
    Сегодня
    +10°
    +22°
    Ясно и безоблачно
    ВремяПогодаТемператураВлажностьДавлениеВетер, м/сВероятность осадков
    00:00Ясно и безоблачно+15°C54 %757 мм3.9 м/с2 %
    03:00Ясно и безоблачно+13°C59 %758 мм3.6 м/с2 %
    06:00Ясно и безоблачно+12°C62 %759 мм3.9 м/с2 %
    09:00Ясно и безоблачно+16°C53 %759 мм3.8 м/с2 %
    12:00Ясно и безоблачно+20°C38 %759 мм4.8 м/с2 %
    15:00Ясно и безоблачно+22°C35 %759 мм4.9 м/с2 %
    18:00Ясно и безоблачно+21°C38 %758 мм4.2 м/с2 %
    21:00Ясно и безоблачно+16°C54 %758 мм2.7 м/с2 %
  • 25мая
    Суббота
    +11°
    +24°
    Ясно и безоблачно
    ВремяПогодаТемператураВлажностьДавлениеВетер, м/сВероятность осадков
    00:00Ясно и безоблачно+14°C55 %758 мм3.3 м/с2 %
    03:00Ясно и безоблачно+11°C63 %758 мм2.9 м/с2 %
    06:00Ясно и безоблачно+11°C68 %758 мм2.9 м/с2 %
    09:00Ясно и безоблачно+17°C59 %758 мм2.5 м/с2 %
    12:00Ясно и безоблачно+21°C47 %758 мм3.0 м/с2 %
    15:00Ясно и безоблачно+24°C39 %757 мм3.5 м/с2 %
    18:00Ясно и безоблачно+24°C40 %756 мм3.0 м/с2 %
    21:00Ясно и безоблачно+18°C67 %755 мм2.3 м/с2 %
  • 26мая
    Воскресенье
    +12°
    +26°
    Облачно с прояснениями
    ВремяПогодаТемператураВлажностьДавлениеВетер, м/сВероятность осадков
    00:00Ясно и безоблачно+14°C76 %755 мм2.4 м/с2 %
    03:00Практически безоблачно+12°C83 %755 мм2.1 м/с2 %
    06:00Ясно и безоблачно+13°C76 %756 мм1.8 м/с2 %
    09:00Ясно и безоблачно+19°C63 %756 мм1.2 м/с2 %
    12:00Ясно и безоблачно+23°C40 %756 мм2.0 м/с2 %
    15:00Облачно с прояснениями+25°C36 %755 мм2.4 м/с2 %
    18:00Небольшая облачность+25°C38 %755 мм2.1 м/с5 %
    21:00Ясно и безоблачно+20°C51 %755 мм2.9 м/с2 %
  • 27мая
    Понедельник
    +13°
    +25°
    Пасмурно, сплошная облачность
    ВремяПогодаТемператураВлажностьДавлениеВетер, м/сВероятность осадков
    00:00Ясно и безоблачно+17°C68 %755 мм2.6 м/с2 %
    03:00Практически безоблачно+14°C86 %756 мм2.0 м/с2 %
    06:00Практически безоблачно+14°C88 %756 мм2.7 м/с3 %
    09:00Ясно и безоблачно+19°C75 %757 мм1.7 м/с2 %
    12:00Практически безоблачно+23°C59 %757 мм2.5 м/с9 %
    15:00Пасмурно, сплошная облачность+24°C52 %756 мм2.8 м/с12 %
    18:00Небольшая облачность и лёгкий дождик+24°C60 %756 мм2.1 м/с35 %
    21:00Ясно и безоблачно+21°C75 %756 мм2.0 м/с9 %
  • 28мая
    Вторник
    +13°
    +25°
    Ясно и безоблачно
    ВремяПогодаТемператураВлажностьДавлениеВетер, м/сВероятность осадков
    00:00Ясно и безоблачно+17°C84 %756 мм2.4 м/с2 %
    03:00Ясно и безоблачно+16°C65 %756 мм3.3 м/с2 %
    06:00Практически безоблачно+15°C65 %756 мм3.1 м/с2 %
    09:00Ясно и безоблачно+18°C57 %756 мм2.3 м/с2 %
    12:00Ясно и безоблачно+22°C41 %756 мм3.5 м/с6 %
    15:00Ясно и безоблачно+24°C36 %756 мм3.6 м/с10 %
    18:00Ясно и безоблачно+24°C38 %755 мм2.9 м/с13 %
    21:00Ясно и безоблачно+19°C56 %754 мм2.2 м/с3 %
Мы используем cookies
Соглашаюсь